El Centro Naf Airport El Centro US
ICAO: KNJK
IATA: NJK
Category: Medium
Scheduled Services: No

Elevation: -42 ft
TransAlt. 18000 ft.

Airport Communications:
ATIS:26.927
CLNC DEL:34.02
GND:121.9
PMSV METRO:34.83
TWR:119.1

KNJK Zoom In..

Runways:

(A) RW 08 length 9503 ft width 200 ft
---- / hdg 77

(B) RW 12 length 6824 ft width 200 ft
---- / hdg 122

(C) RW 26 length 9503 ft width 200 ft
---- / hdg 257

(D) RW 30 length 6824 ft width 200 ft
---- / hdg 302

Location; KNJK
Day. 14 / Time. 01.56 Zulu
* Altimeter: 29.68
* Temperature: 40° c. 104°f.
* Wind from: 250° Speed 27 kn with Gusts up to 32 kn.
Dewpoint: 02° c.
Visibility: 10 Statute Miles.
Clouds: Few 25000 ft.

KNJK 140156Z 25027G32KT 10SM FEW250 40/02 A2968 RMK PK WND 25032/0155 SLP066 T0400017

Going to: --> -->


Wind From 250°
Speed 27 kn.

 
 
jpsmedia worldairports.se 2020   terms of use